Ana Sayfa
METAR-TAF:

METAR-TAF

Havaalanları :

Aeroflex-Andover Airport

Andover, New Jersey, Amerika Birleşik Devletleri

Enlem: 41-00-32N, Boylam: 074-44-12W, yükseklik: 177 m

Güncel hava durumu gözlemi

Rapor saat 03:54 UTC de 24 dakika önce yapıldı.
Rüzgar kuzeydan 11 kt ve 20 kt'a kadar ani rüzgarlar
Sıcaklık 9°C
Nem 43%
Basınç 1005 hPa

METAR: K12N 030354Z AUTO 35011G20KT 09/M03 A2967 RMK AO1 SLP049 T00891028

Saat: 00:18 (04:18 UTC)


TAF: eksik

4.000'den fazla havaalanı için hava durumu gözlemleri ve tahminleri (METAR ve TAF raporları).

Kullanılabilir istasyonlar harita üzerinde sarı ve kırmızı noktalarla gösterilir.

İstasyonun adını görmek için fareyi noktanın üzerinde gezdirin.

Sonrasında hava gözlem ve tahminlerini görmek için tıklayın.

Haritayı değiştirmek için: yaklaştırmak için siyah artı işaretli yeşil düğmeye ve uzaklaştırmak için de eksi işaretli düğmeye hızla tıklayın; bitişik haritalar için yeşil okları kullanın.


METAR-TAF: